sensor_id;sensor_type;location;lat;lon;timestamp;pressure;altitude;pressure_sealevel;temperature;humidity
84752;BME280;74978;37.772;-122.432;2024-03-23T00:55:38;100766.28;;;9.37;69.17
84752;BME280;74978;37.772;-122.432;2024-03-23T00:58:04;100755.23;;;10.10;67.72
84752;BME280;74978;37.772;-122.432;2024-03-23T01:00:29;100749.16;;;9.74;68.30
84752;BME280;74978;37.772;-122.432;2024-03-23T01:03:00;100747.50;;;9.48;68.37
84752;BME280;74978;37.772;-122.432;2024-03-23T01:05:21;100737.77;;;9.41;69.13
84752;BME280;74978;37.772;-122.432;2024-03-23T01:07:46;100743.09;;;9.47;68.75
84752;BME280;74978;37.772;-122.432;2024-03-23T01:10:11;100745.62;;;10.10;67.48
84752;BME280;74978;37.772;-122.432;2024-03-23T01:12:37;100738.35;;;10.09;65.93
84752;BME280;74978;37.772;-122.432;2024-03-23T01:15:03;100738.78;;;10.23;66.00
84752;BME280;74978;37.772;-122.432;2024-03-23T01:17:28;100738.19;;;9.55;67.89
84752;BME280;74978;37.772;-122.432;2024-03-23T01:19:54;100736.86;;;9.11;68.01
84752;BME280;74978;37.772;-122.432;2024-03-23T01:22:19;100737.01;;;9.28;69.10
84752;BME280;74978;37.772;-122.432;2024-03-23T01:24:45;100732.15;;;9.37;69.08
84752;BME280;74978;37.772;-122.432;2024-03-23T01:27:10;100727.60;;;9.09;69.36
84752;BME280;74978;37.772;-122.432;2024-03-23T01:29:36;100728.78;;;9.03;69.87
84752;BME280;74978;37.772;-122.432;2024-03-23T01:32:01;100727.20;;;9.00;70.12
84752;BME280;74978;37.772;-122.432;2024-03-23T01:34:27;100726.62;;;9.32;69.62
84752;BME280;74978;37.772;-122.432;2024-03-23T01:36:53;100727.82;;;9.06;69.07
84752;BME280;74978;37.772;-122.432;2024-03-23T01:39:23;100737.96;;;9.06;69.13
84752;BME280;74978;37.772;-122.432;2024-03-23T01:41:43;100737.01;;;9.17;68.91
84752;BME280;74978;37.772;-122.432;2024-03-23T01:44:09;100737.99;;;8.67;70.85
84752;BME280;74978;37.772;-122.432;2024-03-23T01:46:35;100740.89;;;8.86;71.52
84752;BME280;74978;37.772;-122.432;2024-03-23T01:49:06;100748.86;;;8.52;72.56
84752;BME280;74978;37.772;-122.432;2024-03-23T01:51:27;100753.04;;;8.13;74.61
84752;BME280;74978;37.772;-122.432;2024-03-23T01:53:52;100757.77;;;7.98;74.49
84752;BME280;74978;37.772;-122.432;2024-03-23T01:56:17;100761.66;;;8.09;74.76
84752;BME280;74978;37.772;-122.432;2024-03-23T01:58:43;100757.14;;;8.05;75.00
84752;BME280;74978;37.772;-122.432;2024-03-23T02:01:09;100758.55;;;8.05;75.52
84752;BME280;74978;37.772;-122.432;2024-03-23T02:03:34;100748.29;;;7.66;75.98
84752;BME280;74978;37.772;-122.432;2024-03-23T02:06:00;100778.02;;;6.86;78.62
84752;BME280;74978;37.772;-122.432;2024-03-23T02:08:25;100783.37;;;7.18;78.88
84752;BME280;74978;37.772;-122.432;2024-03-23T02:10:51;100797.11;;;6.77;80.72
84752;BME280;74978;37.772;-122.432;2024-03-23T02:13:18;100794.60;;;6.26;80.55
84752;BME280;74978;37.772;-122.432;2024-03-23T02:15:42;100790.47;;;6.65;79.31
84752;BME280;74978;37.772;-122.432;2024-03-23T02:18:08;100785.29;;;6.10;80.17
84752;BME280;74978;37.772;-122.432;2024-03-23T02:20:33;100789.08;;;5.69;80.68
84752;BME280;74978;37.772;-122.432;2024-03-23T02:22:59;100784.84;;;5.87;81.37
84752;BME280;74978;37.772;-122.432;2024-03-23T02:25:25;100776.66;;;5.79;81.15
84752;BME280;74978;37.772;-122.432;2024-03-23T02:27:50;100773.28;;;6.15;80.72
84752;BME280;74978;37.772;-122.432;2024-03-23T02:30:16;100775.85;;;6.33;81.44
84752;BME280;74978;37.772;-122.432;2024-03-23T02:32:43;100776.22;;;6.01;79.81
84752;BME280;74978;37.772;-122.432;2024-03-23T02:35:08;100788.52;;;6.12;79.89
84752;BME280;74978;37.772;-122.432;2024-03-23T02:37:33;100802.61;;;6.13;80.02
84752;BME280;74978;37.772;-122.432;2024-03-23T02:39:58;100805.89;;;6.01;80.44
84752;BME280;74978;37.772;-122.432;2024-03-23T02:42:24;100806.82;;;5.90;81.53
84752;BME280;74978;37.772;-122.432;2024-03-23T02:44:55;100792.80;;;6.39;79.25
84752;BME280;74978;37.772;-122.432;2024-03-23T02:47:15;100785.43;;;5.89;79.68
84752;BME280;74978;37.772;-122.432;2024-03-23T02:49:41;100791.50;;;6.32;79.57
84752;BME280;74978;37.772;-122.432;2024-03-23T02:52:06;100803.60;;;5.60;79.64
84752;BME280;74978;37.772;-122.432;2024-03-23T02:54:32;100802.40;;;5.44;81.21
84752;BME280;74978;37.772;-122.432;2024-03-23T02:56:57;100798.10;;;5.47;81.55
84752;BME280;74978;37.772;-122.432;2024-03-23T02:59:23;100793.27;;;5.90;80.07
84752;BME280;74978;37.772;-122.432;2024-03-23T03:01:48;100789.01;;;5.89;79.31
84752;BME280;74978;37.772;-122.432;2024-03-23T03:04:14;100775.76;;;5.84;79.55
84752;BME280;74978;37.772;-122.432;2024-03-23T03:06:39;100770.43;;;5.68;80.41
84752;BME280;74978;37.772;-122.432;2024-03-23T03:09:05;100778.66;;;5.30;81.48
84752;BME280;74978;37.772;-122.432;2024-03-23T03:11:30;100777.39;;;5.40;82.56
84752;BME280;74978;37.772;-122.432;2024-03-23T03:13:56;100749.55;;;5.19;82.30
84752;BME280;74978;37.772;-122.432;2024-03-23T03:16:22;100735.44;;;5.38;81.19
84752;BME280;74978;37.772;-122.432;2024-03-23T03:18:47;100734.95;;;5.29;81.83
84752;BME280;74978;37.772;-122.432;2024-03-23T03:21:13;100731.92;;;5.19;80.76
84752;BME280;74978;37.772;-122.432;2024-03-23T03:23:39;100726.99;;;5.81;79.90
84752;BME280;74978;37.772;-122.432;2024-03-23T03:26:05;100731.54;;;5.50;79.47
84752;BME280;74978;37.772;-122.432;2024-03-23T03:28:30;100734.95;;;5.57;78.02
84752;BME280;74978;37.772;-122.432;2024-03-23T03:30:56;100735.27;;;5.05;79.20
84752;BME280;74978;37.772;-122.432;2024-03-23T03:33:21;100732.01;;;5.38;78.42
84752;BME280;74978;37.772;-122.432;2024-03-23T03:35:47;100743.44;;;5.29;79.36
84752;BME280;74978;37.772;-122.432;2024-03-23T03:38:18;100745.72;;;5.34;79.38
84752;BME280;74978;37.772;-122.432;2024-03-23T03:40:38;100750.00;;;5.84;78.54
84752;BME280;74978;37.772;-122.432;2024-03-23T03:43:04;100763.27;;;5.78;78.37
84752;BME280;74978;37.772;-122.432;2024-03-23T03:45:29;100754.29;;;6.49;75.13
84752;BME280;74978;37.772;-122.432;2024-03-23T03:47:55;100754.79;;;5.98;75.65
84752;BME280;74978;37.772;-122.432;2024-03-23T03:50:22;100764.60;;;6.12;75.64
84752;BME280;74978;37.772;-122.432;2024-03-23T03:52:47;100773.61;;;6.34;75.65
84752;BME280;74978;37.772;-122.432;2024-03-23T03:55:13;100768.93;;;6.52;75.43
84752;BME280;74978;37.772;-122.432;2024-03-23T03:57:38;100771.54;;;6.28;73.83
84752;BME280;74978;37.772;-122.432;2024-03-23T04:00:04;100759.89;;;6.99;70.62
84752;BME280;74978;37.772;-122.432;2024-03-23T04:02:29;100765.23;;;5.96;74.94
84752;BME280;74978;37.772;-122.432;2024-03-23T04:04:54;100776.71;;;6.23;74.40
84752;BME280;74978;37.772;-122.432;2024-03-23T04:07:20;100779.78;;;6.19;74.32
84752;BME280;74978;37.772;-122.432;2024-03-23T04:09:45;100780.53;;;7.17;72.82
84752;BME280;74978;37.772;-122.432;2024-03-23T04:12:11;100786.89;;;7.41;70.78
84752;BME280;74978;37.772;-122.432;2024-03-23T04:14:37;100794.55;;;7.76;68.76
84752;BME280;74978;37.772;-122.432;2024-03-23T04:17:02;100798.35;;;6.79;69.06
84752;BME280;74978;37.772;-122.432;2024-03-23T04:19:28;100795.96;;;7.55;69.14
84752;BME280;74978;37.772;-122.432;2024-03-23T04:21:54;100784.75;;;7.30;70.68
84752;BME280;74978;37.772;-122.432;2024-03-23T04:24:19;100784.92;;;6.59;72.44
84752;BME280;74978;37.772;-122.432;2024-03-23T04:26:45;100790.64;;;7.14;72.24
84752;BME280;74978;37.772;-122.432;2024-03-23T04:29:10;100791.46;;;7.22;71.35
84752;BME280;74978;37.772;-122.432;2024-03-23T04:31:35;100788.96;;;7.43;70.57
84752;BME280;74978;37.772;-122.432;2024-03-23T04:34:08;100799.78;;;6.90;71.94
84752;BME280;74978;37.772;-122.432;2024-03-23T04:36:27;100796.64;;;9.00;68.19
84752;BME280;74978;37.772;-122.432;2024-03-23T04:38:52;100800.37;;;7.64;68.45
84752;BME280;74978;37.772;-122.432;2024-03-23T04:41:18;100805.32;;;9.82;64.72
84752;BME280;74978;37.772;-122.432;2024-03-23T04:43:46;100801.93;;;7.99;67.36
84752;BME280;74978;37.772;-122.432;2024-03-23T04:46:10;100808.00;;;7.17;69.37
84752;BME280;74978;37.772;-122.432;2024-03-23T04:48:35;100805.39;;;7.21;70.06
84752;BME280;74978;37.772;-122.432;2024-03-23T04:51:00;100809.64;;;6.84;71.10
84752;BME280;74978;37.772;-122.432;2024-03-23T04:53:26;100813.24;;;7.41;70.02
84752;BME280;74978;37.772;-122.432;2024-03-23T04:55:59;100814.52;;;5.96;74.18
84752;BME280;74978;37.772;-122.432;2024-03-23T04:58:23;100822.09;;;5.36;77.70
84752;BME280;74978;37.772;-122.432;2024-03-23T05:00:54;100835.91;;;5.70;77.11
84752;BME280;74978;37.772;-122.432;2024-03-23T05:03:09;100837.64;;;5.48;77.42
84752;BME280;74978;37.772;-122.432;2024-03-23T05:05:35;100829.04;;;5.52;76.66
84752;BME280;74978;37.772;-122.432;2024-03-23T05:08:00;100819.57;;;5.58;77.74
84752;BME280;74978;37.772;-122.432;2024-03-23T05:10:31;100827.74;;;5.63;77.46
84752;BME280;74978;37.772;-122.432;2024-03-23T05:12:51;100819.91;;;6.17;74.99
84752;BME280;74978;37.772;-122.432;2024-03-23T05:15:18;100816.52;;;6.04;74.32
84752;BME280;74978;37.772;-122.432;2024-03-23T05:17:42;100817.37;;;5.83;75.63
84752;BME280;74978;37.772;-122.432;2024-03-23T05:20:08;100816.32;;;7.44;70.27
84752;BME280;74978;37.772;-122.432;2024-03-23T05:22:33;100812.53;;;7.33;70.10
84752;BME280;74978;37.772;-122.432;2024-03-23T05:24:59;100801.71;;;6.26;72.07
84752;BME280;74978;37.772;-122.432;2024-03-23T05:27:25;100794.65;;;7.21;71.19
84752;BME280;74978;37.772;-122.432;2024-03-23T05:29:50;100786.63;;;7.85;67.41
84752;BME280;74978;37.772;-122.432;2024-03-23T05:32:16;100780.82;;;8.93;63.58
84752;BME280;74978;37.772;-122.432;2024-03-23T05:34:41;100781.62;;;9.37;62.71
84752;BME280;74978;37.772;-122.432;2024-03-23T05:37:07;100773.94;;;9.78;60.97
84752;BME280;74978;37.772;-122.432;2024-03-23T05:39:32;100763.64;;;10.39;59.70
84752;BME280;74978;37.772;-122.432;2024-03-23T05:41:58;100765.96;;;8.45;62.63
84752;BME280;74978;37.772;-122.432;2024-03-23T05:44:23;100776.29;;;8.44;63.98
84752;BME280;74978;37.772;-122.432;2024-03-23T05:46:49;100783.19;;;9.05;62.83
84752;BME280;74978;37.772;-122.432;2024-03-23T05:49:16;100784.76;;;8.94;63.88
84752;BME280;74978;37.772;-122.432;2024-03-23T05:51:40;100786.60;;;7.89;66.13
84752;BME280;74978;37.772;-122.432;2024-03-23T05:54:05;100784.17;;;8.08;65.78
84752;BME280;74978;37.772;-122.432;2024-03-23T05:56:30;100778.83;;;8.01;65.64
84752;BME280;74978;37.772;-122.432;2024-03-23T05:58:56;100766.73;;;8.16;64.16
84752;BME280;74978;37.772;-122.432;2024-03-23T06:01:27;100766.42;;;9.12;61.41
84752;BME280;74978;37.772;-122.432;2024-03-23T06:03:47;100765.26;;;10.93;57.61
84752;BME280;74978;37.772;-122.432;2024-03-23T06:06:12;100767.60;;;7.60;66.72
84752;BME280;74978;37.772;-122.432;2024-03-23T06:08:37;100763.50;;;7.39;69.13
84752;BME280;74978;37.772;-122.432;2024-03-23T06:11:03;100770.64;;;7.46;68.46
84752;BME280;74978;37.772;-122.432;2024-03-23T06:13:28;100771.40;;;8.38;67.88
84752;BME280;74978;37.772;-122.432;2024-03-23T06:15:53;100779.04;;;8.43;66.87
84752;BME280;74978;37.772;-122.432;2024-03-23T06:18:19;100778.28;;;7.46;70.73
84752;BME280;74978;37.772;-122.432;2024-03-23T06:20:44;100780.31;;;6.66;72.80
84752;BME280;74978;37.772;-122.432;2024-03-23T06:23:10;100779.55;;;6.79;74.21
84752;BME280;74978;37.772;-122.432;2024-03-23T06:25:35;100784.10;;;7.21;72.35
84752;BME280;74978;37.772;-122.432;2024-03-23T06:28:01;100781.99;;;7.69;70.03
84752;BME280;74978;37.772;-122.432;2024-03-23T06:30:26;100777.26;;;7.30;69.67
84752;BME280;74978;37.772;-122.432;2024-03-23T06:32:52;100780.32;;;7.07;70.91
84752;BME280;74978;37.772;-122.432;2024-03-23T06:35:17;100779.11;;;7.40;68.60
84752;BME280;74978;37.772;-122.432;2024-03-23T06:37:42;100781.78;;;6.08;68.74
84752;BME280;74978;37.772;-122.432;2024-03-23T06:40:08;100788.22;;;6.37;70.16
84752;BME280;74978;37.772;-122.432;2024-03-23T06:42:33;100798.08;;;6.15;70.19
84752;BME280;74978;37.772;-122.432;2024-03-23T06:44:59;100790.86;;;6.07;69.45
84752;BME280;74978;37.772;-122.432;2024-03-23T06:47:24;100790.99;;;5.90;70.30
84752;BME280;74978;37.772;-122.432;2024-03-23T06:49:50;100791.78;;;6.04;69.34
84752;BME280;74978;37.772;-122.432;2024-03-23T06:52:15;100790.92;;;6.20;68.88
84752;BME280;74978;37.772;-122.432;2024-03-23T06:54:41;100788.80;;;5.61;69.12
84752;BME280;74978;37.772;-122.432;2024-03-23T06:57:07;100785.14;;;5.66;68.97
84752;BME280;74978;37.772;-122.432;2024-03-23T06:59:32;100782.27;;;6.04;69.23
84752;BME280;74978;37.772;-122.432;2024-03-23T07:01:58;100778.15;;;5.78;69.01
84752;BME280;74978;37.772;-122.432;2024-03-23T07:04:24;100775.87;;;6.05;67.60
84752;BME280;74978;37.772;-122.432;2024-03-23T07:06:49;100775.07;;;6.07;66.43
84752;BME280;74978;37.772;-122.432;2024-03-23T07:09:15;100776.62;;;6.38;66.02
84752;BME280;74978;37.772;-122.432;2024-03-23T07:11:40;100778.70;;;5.91;67.45
84752;BME280;74978;37.772;-122.432;2024-03-23T07:14:06;100777.28;;;5.91;68.40
84752;BME280;74978;37.772;-122.432;2024-03-23T07:16:31;100776.89;;;5.94;67.42
84752;BME280;74978;37.772;-122.432;2024-03-23T07:18:56;100776.42;;;5.84;66.92
84752;BME280;74978;37.772;-122.432;2024-03-23T07:21:28;100776.18;;;6.02;66.31
84752;BME280;74978;37.772;-122.432;2024-03-23T07:23:48;100778.72;;;6.10;67.07
84752;BME280;74978;37.772;-122.432;2024-03-23T07:26:14;100778.73;;;5.91;66.96
84752;BME280;74978;37.772;-122.432;2024-03-23T07:28:38;100776.37;;;6.82;63.65
84752;BME280;74978;37.772;-122.432;2024-03-23T07:31:05;100772.76;;;8.00;60.12
84752;BME280;74978;37.772;-122.432;2024-03-23T07:33:29;100772.59;;;7.77;60.75
84752;BME280;74978;37.772;-122.432;2024-03-23T07:35:55;100775.38;;;7.47;59.47
84752;BME280;74978;37.772;-122.432;2024-03-23T07:38:20;100770.94;;;8.70;56.91
84752;BME280;74978;37.772;-122.432;2024-03-23T07:40:45;100770.37;;;7.70;59.67
84752;BME280;74978;37.772;-122.432;2024-03-23T07:43:11;100769.94;;;8.60;56.82
84752;BME280;74978;37.772;-122.432;2024-03-23T07:45:36;100770.53;;;8.70;55.03
84752;BME280;74978;37.772;-122.432;2024-03-23T07:48:02;100773.89;;;9.06;54.41
84752;BME280;74978;37.772;-122.432;2024-03-23T07:50:27;100766.36;;;7.34;59.05
84752;BME280;74978;37.772;-122.432;2024-03-23T07:52:52;100765.10;;;7.59;58.93
84752;BME280;74978;37.772;-122.432;2024-03-23T07:55:18;100766.03;;;7.69;58.49
84752;BME280;74978;37.772;-122.432;2024-03-23T07:57:44;100764.35;;;7.66;59.39
84752;BME280;74978;37.772;-122.432;2024-03-23T08:00:10;100765.90;;;7.25;60.72
84752;BME280;74978;37.772;-122.432;2024-03-23T08:02:35;100765.26;;;7.19;61.44
84752;BME280;74978;37.772;-122.432;2024-03-23T08:05:00;100766.32;;;6.95;61.97
84752;BME280;74978;37.772;-122.432;2024-03-23T08:07:25;100769.25;;;7.57;59.49
84752;BME280;74978;37.772;-122.432;2024-03-23T08:09:51;100769.09;;;7.79;58.73
84752;BME280;74978;37.772;-122.432;2024-03-23T08:12:16;100768.09;;;7.10;60.44
84752;BME280;74978;37.772;-122.432;2024-03-23T08:14:42;100766.96;;;7.53;59.78
84752;BME280;74978;37.772;-122.432;2024-03-23T08:17:08;100763.76;;;8.15;58.17
84752;BME280;74978;37.772;-122.432;2024-03-23T08:19:33;100769.12;;;6.69;61.17
84752;BME280;74978;37.772;-122.432;2024-03-23T08:21:58;100768.12;;;7.45;60.60
84752;BME280;74978;37.772;-122.432;2024-03-23T08:24:23;100764.75;;;7.77;59.48
84752;BME280;74978;37.772;-122.432;2024-03-23T08:26:49;100770.36;;;7.07;60.86
84752;BME280;74978;37.772;-122.432;2024-03-23T08:29:14;100769.03;;;7.07;61.10
84752;BME280;74978;37.772;-122.432;2024-03-23T08:31:40;100772.17;;;7.03;61.73
84752;BME280;74978;37.772;-122.432;2024-03-23T08:34:05;100770.96;;;7.03;62.28
84752;BME280;74978;37.772;-122.432;2024-03-23T08:36:30;100765.71;;;6.85;62.16
84752;BME280;74978;37.772;-122.432;2024-03-23T08:38:56;100767.54;;;6.52;62.11
84752;BME280;74978;37.772;-122.432;2024-03-23T08:41:21;100771.52;;;6.41;63.20
84752;BME280;74978;37.772;-122.432;2024-03-23T08:43:46;100773.72;;;6.07;63.55
84752;BME280;74978;37.772;-122.432;2024-03-23T08:46:13;100773.76;;;6.25;62.55
84752;BME280;74978;37.772;-122.432;2024-03-23T08:48:39;100778.73;;;5.80;64.44
84752;BME280;74978;37.772;-122.432;2024-03-23T08:51:04;100780.36;;;6.04;65.22
84752;BME280;74978;37.772;-122.432;2024-03-23T08:53:28;100774.43;;;6.51;63.48
84752;BME280;74978;37.772;-122.432;2024-03-23T08:55:54;100772.57;;;6.51;62.79
84752;BME280;74978;37.772;-122.432;2024-03-23T08:58:19;100775.38;;;6.99;61.22
84752;BME280;74978;37.772;-122.432;2024-03-23T09:00:45;100772.66;;;8.17;58.68
84752;BME280;74978;37.772;-122.432;2024-03-23T09:03:10;100772.05;;;7.43;58.66
84752;BME280;74978;37.772;-122.432;2024-03-23T09:05:39;100771.44;;;8.98;55.44
84752;BME280;74978;37.772;-122.432;2024-03-23T09:08:01;100767.10;;;7.17;59.94
84752;BME280;74978;37.772;-122.432;2024-03-23T09:10:26;100770.48;;;6.70;61.18
84752;BME280;74978;37.772;-122.432;2024-03-23T09:12:52;100765.30;;;6.81;60.95
84752;BME280;74978;37.772;-122.432;2024-03-23T09:15:18;100762.15;;;6.93;62.31
84752;BME280;74978;37.772;-122.432;2024-03-23T09:17:43;100762.00;;;6.64;62.99
84752;BME280;74978;37.772;-122.432;2024-03-23T09:20:09;100761.19;;;6.33;64.01
84752;BME280;74978;37.772;-122.432;2024-03-23T09:22:34;100760.68;;;6.46;64.32
84752;BME280;74978;37.772;-122.432;2024-03-23T09:24:59;100754.51;;;6.32;63.79
84752;BME280;74978;37.772;-122.432;2024-03-23T09:27:25;100750.67;;;6.93;64.09
84752;BME280;74978;37.772;-122.432;2024-03-23T09:29:50;100746.84;;;5.94;64.60
84752;BME280;74978;37.772;-122.432;2024-03-23T09:32:16;100746.95;;;6.21;64.62
84752;BME280;74978;37.772;-122.432;2024-03-23T09:34:41;100745.71;;;6.49;64.77
84752;BME280;74978;37.772;-122.432;2024-03-23T09:37:07;100745.49;;;6.27;64.62
84752;BME280;74978;37.772;-122.432;2024-03-23T09:39:33;100744.70;;;6.37;65.79
84752;BME280;74978;37.772;-122.432;2024-03-23T09:41:58;100746.01;;;6.21;66.22
84752;BME280;74978;37.772;-122.432;2024-03-23T09:44:24;100739.91;;;6.52;65.56
84752;BME280;74978;37.772;-122.432;2024-03-23T09:46:48;100739.70;;;6.20;66.26
84752;BME280;74978;37.772;-122.432;2024-03-23T09:49:14;100749.33;;;6.20;67.72
84752;BME280;74978;37.772;-122.432;2024-03-23T09:51:40;100759.94;;;6.25;69.34
84752;BME280;74978;37.772;-122.432;2024-03-23T09:54:05;100777.80;;;5.24;72.30
84752;BME280;74978;37.772;-122.432;2024-03-23T09:56:30;100761.52;;;4.95;69.41
84752;BME280;74978;37.772;-122.432;2024-03-23T09:59:00;100746.91;;;5.36;67.27
84752;BME280;74978;37.772;-122.432;2024-03-23T10:01:21;100743.33;;;6.10;64.09
84752;BME280;74978;37.772;-122.432;2024-03-23T10:03:47;100745.34;;;5.65;64.98
84752;BME280;74978;37.772;-122.432;2024-03-23T10:06:12;100739.35;;;6.00;64.65
84752;BME280;74978;37.772;-122.432;2024-03-23T10:08:37;100732.28;;;5.87;63.96
84752;BME280;74978;37.772;-122.432;2024-03-23T10:11:13;100736.85;;;5.55;65.90
84752;BME280;74978;37.772;-122.432;2024-03-23T10:13:28;100729.23;;;5.94;66.13
84752;BME280;74978;37.772;-122.432;2024-03-23T10:15:57;100730.61;;;5.99;65.10
84752;BME280;74978;37.772;-122.432;2024-03-23T10:18:20;100735.03;;;5.62;67.13
84752;BME280;74978;37.772;-122.432;2024-03-23T10:20:45;100725.62;;;6.16;65.47
84752;BME280;74978;37.772;-122.432;2024-03-23T10:23:16;100718.06;;;6.40;66.27
84752;BME280;74978;37.772;-122.432;2024-03-23T10:25:36;100722.41;;;6.32;65.34
84752;BME280;74978;37.772;-122.432;2024-03-23T10:28:02;100721.04;;;6.01;66.84
84752;BME280;74978;37.772;-122.432;2024-03-23T10:30:27;100721.13;;;6.65;66.10
84752;BME280;74978;37.772;-122.432;2024-03-23T10:32:52;100720.34;;;6.72;65.12
84752;BME280;74978;37.772;-122.432;2024-03-23T10:35:19;100718.33;;;6.69;66.78
84752;BME280;74978;37.772;-122.432;2024-03-23T10:37:43;100720.97;;;6.60;67.27
84752;BME280;74978;37.772;-122.432;2024-03-23T10:40:11;100720.86;;;5.97;68.21
84752;BME280;74978;37.772;-122.432;2024-03-23T10:42:34;100714.21;;;6.67;65.95
84752;BME280;74978;37.772;-122.432;2024-03-23T10:45:00;100715.73;;;5.87;67.49
84752;BME280;74978;37.772;-122.432;2024-03-23T10:47:24;100712.76;;;6.40;66.44
84752;BME280;74978;37.772;-122.432;2024-03-23T10:49:50;100713.37;;;6.00;67.23
84752;BME280;74978;37.772;-122.432;2024-03-23T10:52:16;100705.55;;;6.66;66.19
84752;BME280;74978;37.772;-122.432;2024-03-23T10:54:42;100705.29;;;6.90;63.34
84752;BME280;74978;37.772;-122.432;2024-03-23T10:57:10;100702.70;;;6.38;65.71
84752;BME280;74978;37.772;-122.432;2024-03-23T10:59:33;100700.28;;;7.24;63.48
84752;BME280;74978;37.772;-122.432;2024-03-23T11:02:00;100696.79;;;7.50;60.85
84752;BME280;74978;37.772;-122.432;2024-03-23T11:04:32;100692.50;;;6.82;62.25
84752;BME280;74978;37.772;-122.432;2024-03-23T11:06:50;100690.38;;;6.78;62.93
84752;BME280;74978;37.772;-122.432;2024-03-23T11:11:41;100684.95;;;9.23;56.91
84752;BME280;74978;37.772;-122.432;2024-03-23T11:14:21;100684.76;;;7.01;61.71
84752;BME280;74978;37.772;-122.432;2024-03-23T11:16:33;100682.44;;;7.82;61.24
84752;BME280;74978;37.772;-122.432;2024-03-23T11:23:49;100684.00;;;7.85;59.89
84752;BME280;74978;37.772;-122.432;2024-03-23T11:26:14;100680.54;;;8.31;59.73
84752;BME280;74978;37.772;-122.432;2024-03-23T11:28:40;100675.51;;;7.05;62.22
84752;BME280;74978;37.772;-122.432;2024-03-23T11:31:10;100672.53;;;8.27;59.33
84752;BME280;74978;37.772;-122.432;2024-03-23T11:33:30;100666.57;;;8.19;59.43
84752;BME280;74978;37.772;-122.432;2024-03-23T11:35:56;100661.80;;;6.95;61.95
84752;BME280;74978;37.772;-122.432;2024-03-23T11:38:22;100670.46;;;6.68;64.04
84752;BME280;74978;37.772;-122.432;2024-03-23T11:40:49;100667.14;;;6.50;64.33
84752;BME280;74978;37.772;-122.432;2024-03-23T11:43:15;100663.57;;;6.46;65.77
84752;BME280;74978;37.772;-122.432;2024-03-23T11:45:41;100665.22;;;6.55;66.05
84752;BME280;74978;37.772;-122.432;2024-03-23T11:48:07;100664.86;;;6.20;65.93
84752;BME280;74978;37.772;-122.432;2024-03-23T11:50:30;100666.68;;;6.68;64.42
84752;BME280;74978;37.772;-122.432;2024-03-23T11:53:07;100671.84;;;6.53;64.21
84752;BME280;74978;37.772;-122.432;2024-03-23T11:55:21;100665.11;;;6.25;66.13
84752;BME280;74978;37.772;-122.432;2024-03-23T11:57:47;100668.89;;;6.50;66.19
84752;BME280;74978;37.772;-122.432;2024-03-23T12:00:22;100666.42;;;6.21;67.21
84752;BME280;74978;37.772;-122.432;2024-03-23T12:02:38;100668.86;;;6.31;68.62
84752;BME280;74978;37.772;-122.432;2024-03-23T12:07:29;100674.31;;;6.49;67.31
84752;BME280;74978;37.772;-122.432;2024-03-23T12:10:04;100672.78;;;6.25;67.98
84752;BME280;74978;37.772;-122.432;2024-03-23T12:12:19;100674.43;;;6.40;67.99
84752;BME280;74978;37.772;-122.432;2024-03-23T12:15:00;100677.21;;;6.71;66.85
84752;BME280;74978;37.772;-122.432;2024-03-23T12:17:11;100679.96;;;7.26;64.91
84752;BME280;74978;37.772;-122.432;2024-03-23T12:19:35;100684.33;;;6.63;67.37
84752;BME280;74978;37.772;-122.432;2024-03-23T12:22:02;100689.80;;;6.59;66.52
84752;BME280;74978;37.772;-122.432;2024-03-23T12:24:27;100689.68;;;6.38;66.39
84752;BME280;74978;37.772;-122.432;2024-03-23T12:26:53;100690.83;;;6.42;66.24
84752;BME280;74978;37.772;-122.432;2024-03-23T12:29:18;100690.26;;;7.10;64.53
84752;BME280;74978;37.772;-122.432;2024-03-23T12:31:43;100690.80;;;7.03;62.94
84752;BME280;74978;37.772;-122.432;2024-03-23T12:34:09;100692.82;;;6.16;66.08
84752;BME280;74978;37.772;-122.432;2024-03-23T12:36:34;100697.03;;;6.37;65.82
84752;BME280;74978;37.772;-122.432;2024-03-23T12:39:00;100698.89;;;5.92;68.37
84752;BME280;74978;37.772;-122.432;2024-03-23T12:41:25;100693.49;;;6.03;66.35
84752;BME280;74978;37.772;-122.432;2024-03-23T12:43:51;100691.59;;;7.74;62.44
84752;BME280;74978;37.772;-122.432;2024-03-23T12:46:16;100697.84;;;7.36;61.84
84752;BME280;74978;37.772;-122.432;2024-03-23T12:48:45;100700.65;;;7.17;62.36
84752;BME280;74978;37.772;-122.432;2024-03-23T12:51:08;100702.26;;;7.68;60.67
84752;BME280;74978;37.772;-122.432;2024-03-23T12:53:34;100707.35;;;7.09;62.46
84752;BME280;74978;37.772;-122.432;2024-03-23T12:55:59;100708.80;;;7.00;62.79
84752;BME280;74978;37.772;-122.432;2024-03-23T12:58:25;100710.36;;;6.78;63.79
84752;BME280;74978;37.772;-122.432;2024-03-23T13:00:51;100707.58;;;7.73;60.19
84752;BME280;74978;37.772;-122.432;2024-03-23T13:03:16;100705.26;;;7.25;60.68
84752;BME280;74978;37.772;-122.432;2024-03-23T13:05:42;100705.43;;;8.61;58.08
84752;BME280;74978;37.772;-122.432;2024-03-23T13:08:07;100702.67;;;7.55;60.71
84752;BME280;74978;37.772;-122.432;2024-03-23T13:10:33;100703.64;;;7.28;61.67
84752;BME280;74978;37.772;-122.432;2024-03-23T13:12:59;100705.50;;;7.48;61.11
84752;BME280;74978;37.772;-122.432;2024-03-23T13:15:24;100706.62;;;6.64;63.45
84752;BME280;74978;37.772;-122.432;2024-03-23T13:17:50;100703.45;;;6.79;63.70
84752;BME280;74978;37.772;-122.432;2024-03-23T13:20:16;100699.69;;;7.72;61.10
84752;BME280;74978;37.772;-122.432;2024-03-23T13:22:41;100699.54;;;7.10;64.39
84752;BME280;74978;37.772;-122.432;2024-03-23T13:25:07;100699.75;;;6.71;65.74